sensor_id;sensor_type;location;lat;lon;timestamp;temperature;humidity
53314;DHT22;39202;51.468;7.146;2023-04-28T00:04:27;24.30;38.20
53314;DHT22;39202;51.468;7.146;2023-04-28T00:09:30;24.30;38.20
53314;DHT22;39202;51.468;7.146;2023-04-28T00:14:31;24.30;38.20
53314;DHT22;39202;51.468;7.146;2023-04-28T00:19:33;24.30;38.20
53314;DHT22;39202;51.468;7.146;2023-04-28T00:24:36;24.30;38.30
53314;DHT22;39202;51.468;7.146;2023-04-28T00:29:38;24.30;38.30
53314;DHT22;39202;51.468;7.146;2023-04-28T00:34:40;24.30;38.30
53314;DHT22;39202;51.468;7.146;2023-04-28T00:39:43;24.20;38.30
53314;DHT22;39202;51.468;7.146;2023-04-28T00:44:46;24.20;38.30
53314;DHT22;39202;51.468;7.146;2023-04-28T00:49:48;24.20;38.30
53314;DHT22;39202;51.468;7.146;2023-04-28T00:54:51;24.20;38.40
53314;DHT22;39202;51.468;7.146;2023-04-28T00:59:53;24.20;38.40
53314;DHT22;39202;51.468;7.146;2023-04-28T01:04:55;24.20;38.40
53314;DHT22;39202;51.468;7.146;2023-04-28T01:09:58;24.20;38.40
53314;DHT22;39202;51.468;7.146;2023-04-28T01:15:00;24.20;38.40
53314;DHT22;39202;51.468;7.146;2023-04-28T01:20:02;24.20;38.40
53314;DHT22;39202;51.468;7.146;2023-04-28T01:25:06;24.10;38.40
53314;DHT22;39202;51.468;7.146;2023-04-28T01:30:09;24.10;38.40
53314;DHT22;39202;51.468;7.146;2023-04-28T01:35:10;24.10;38.40
53314;DHT22;39202;51.468;7.146;2023-04-28T01:40:14;24.10;38.50
53314;DHT22;39202;51.468;7.146;2023-04-28T01:45:16;24.10;38.50
53314;DHT22;39202;51.468;7.146;2023-04-28T01:50:17;24.10;38.50
53314;DHT22;39202;51.468;7.146;2023-04-28T01:55:20;24.10;38.50
53314;DHT22;39202;51.468;7.146;2023-04-28T02:00:22;24.10;38.50
53314;DHT22;39202;51.468;7.146;2023-04-28T02:05:24;24.10;38.50
53314;DHT22;39202;51.468;7.146;2023-04-28T02:10:28;24.00;38.50
53314;DHT22;39202;51.468;7.146;2023-04-28T02:15:29;24.00;38.50
53314;DHT22;39202;51.468;7.146;2023-04-28T02:20:31;24.00;38.50
53314;DHT22;39202;51.468;7.146;2023-04-28T02:25:34;24.00;38.80
53314;DHT22;39202;51.468;7.146;2023-04-28T02:30:36;24.00;38.50
53314;DHT22;39202;51.468;7.146;2023-04-28T02:35:37;24.00;38.60
53314;DHT22;39202;51.468;7.146;2023-04-28T02:40:40;24.00;38.60
53314;DHT22;39202;51.468;7.146;2023-04-28T02:45:42;23.90;38.60
53314;DHT22;39202;51.468;7.146;2023-04-28T02:50:44;23.90;38.60
53314;DHT22;39202;51.468;7.146;2023-04-28T02:55:47;23.90;38.60
53314;DHT22;39202;51.468;7.146;2023-04-28T03:00:49;23.90;38.60
53314;DHT22;39202;51.468;7.146;2023-04-28T03:05:51;23.90;38.60
53314;DHT22;39202;51.468;7.146;2023-04-28T03:10:54;23.90;38.60
53314;DHT22;39202;51.468;7.146;2023-04-28T03:15:56;23.90;38.60
53314;DHT22;39202;51.468;7.146;2023-04-28T03:20:57;23.90;38.60
53314;DHT22;39202;51.468;7.146;2023-04-28T03:26:00;23.80;38.60
53314;DHT22;39202;51.468;7.146;2023-04-28T03:31:02;23.80;38.60
53314;DHT22;39202;51.468;7.146;2023-04-28T03:36:04;23.80;38.60
53314;DHT22;39202;51.468;7.146;2023-04-28T03:41:07;23.80;38.70
53314;DHT22;39202;51.468;7.146;2023-04-28T03:46:09;23.80;38.70
53314;DHT22;39202;51.468;7.146;2023-04-28T03:51:11;23.80;38.70
53314;DHT22;39202;51.468;7.146;2023-04-28T03:56:14;23.80;38.70
53314;DHT22;39202;51.468;7.146;2023-04-28T04:01:16;23.80;38.80
53314;DHT22;39202;51.468;7.146;2023-04-28T04:06:18;23.80;38.80
53314;DHT22;39202;51.468;7.146;2023-04-28T04:11:21;23.80;38.80
53314;DHT22;39202;51.468;7.146;2023-04-28T04:16:22;23.80;38.80
53314;DHT22;39202;51.468;7.146;2023-04-28T04:21:24;23.80;38.80
53314;DHT22;39202;51.468;7.146;2023-04-28T04:26:28;23.70;38.70
53314;DHT22;39202;51.468;7.146;2023-04-28T04:31:30;23.70;38.80
53314;DHT22;39202;51.468;7.146;2023-04-28T04:36:32;23.70;38.80
53314;DHT22;39202;51.468;7.146;2023-04-28T04:41:35;23.70;38.80
53314;DHT22;39202;51.468;7.146;2023-04-28T04:46:37;23.70;38.90
53314;DHT22;39202;51.468;7.146;2023-04-28T04:51:40;23.70;38.80
53314;DHT22;39202;51.468;7.146;2023-04-28T04:56:43;23.70;38.90
53314;DHT22;39202;51.468;7.146;2023-04-28T05:01:45;23.70;38.90
53314;DHT22;39202;51.468;7.146;2023-04-28T05:06:47;23.70;38.90
53314;DHT22;39202;51.468;7.146;2023-04-28T05:11:50;23.70;38.90
53314;DHT22;39202;51.468;7.146;2023-04-28T05:16:51;23.70;38.90
53314;DHT22;39202;51.468;7.146;2023-04-28T05:21:53;23.70;38.90
53314;DHT22;39202;51.468;7.146;2023-04-28T05:26:58;23.70;38.80
53314;DHT22;39202;51.468;7.146;2023-04-28T05:32:01;23.60;38.90
53314;DHT22;39202;51.468;7.146;2023-04-28T05:37:02;23.60;38.90
53314;DHT22;39202;51.468;7.146;2023-04-28T05:42:05;23.60;38.90
53314;DHT22;39202;51.468;7.146;2023-04-28T05:47:07;23.60;38.90
53314;DHT22;39202;51.468;7.146;2023-04-28T05:52:09;23.60;38.90
53314;DHT22;39202;51.468;7.146;2023-04-28T05:57:12;23.60;38.90
53314;DHT22;39202;51.468;7.146;2023-04-28T06:02:14;23.60;38.90
53314;DHT22;39202;51.468;7.146;2023-04-28T06:07:16;23.60;38.90
53314;DHT22;39202;51.468;7.146;2023-04-28T06:12:19;23.60;39.00
53314;DHT22;39202;51.468;7.146;2023-04-28T06:17:20;23.60;39.00
53314;DHT22;39202;51.468;7.146;2023-04-28T06:22:22;23.60;39.00
53314;DHT22;39202;51.468;7.146;2023-04-28T06:27:25;23.70;39.10
53314;DHT22;39202;51.468;7.146;2023-04-28T06:32:27;23.70;39.20
53314;DHT22;39202;51.468;7.146;2023-04-28T06:37:29;23.70;39.30
53314;DHT22;39202;51.468;7.146;2023-04-28T06:42:32;23.70;39.40
53314;DHT22;39202;51.468;7.146;2023-04-28T06:47:34;23.80;39.60
53314;DHT22;39202;51.468;7.146;2023-04-28T06:52:36;23.80;39.60
53314;DHT22;39202;51.468;7.146;2023-04-28T06:57:40;23.90;39.70
53314;DHT22;39202;51.468;7.146;2023-04-28T07:02:42;24.00;39.70
53314;DHT22;39202;51.468;7.146;2023-04-28T07:07:44;24.10;39.80
53314;DHT22;39202;51.468;7.146;2023-04-28T07:12:49;24.20;39.80
53314;DHT22;39202;51.468;7.146;2023-04-28T07:17:51;24.20;39.80
53314;DHT22;39202;51.468;7.146;2023-04-28T07:22:53;24.20;39.70
53314;DHT22;39202;51.468;7.146;2023-04-28T07:27:56;24.30;39.80
53314;DHT22;39202;51.468;7.146;2023-04-28T07:32:57;24.30;39.90
53314;DHT22;39202;51.468;7.146;2023-04-28T07:37:59;24.40;39.80
53314;DHT22;39202;51.468;7.146;2023-04-28T07:43:02;24.50;39.90
53314;DHT22;39202;51.468;7.146;2023-04-28T07:48:04;24.60;40.00
53314;DHT22;39202;51.468;7.146;2023-04-28T07:53:06;24.60;39.90
53314;DHT22;39202;51.468;7.146;2023-04-28T07:58:09;24.60;39.90
53314;DHT22;39202;51.468;7.146;2023-04-28T08:03:11;24.80;40.00
53314;DHT22;39202;51.468;7.146;2023-04-28T08:08:13;24.80;40.00
53314;DHT22;39202;51.468;7.146;2023-04-28T08:13:16;24.80;40.50
53314;DHT22;39202;51.468;7.146;2023-04-28T08:18:18;24.80;39.90
53314;DHT22;39202;51.468;7.146;2023-04-28T08:23:19;24.80;39.90
53314;DHT22;39202;51.468;7.146;2023-04-28T08:28:22;24.90;39.90
53314;DHT22;39202;51.468;7.146;2023-04-28T08:38:26;24.90;39.90
53314;DHT22;39202;51.468;7.146;2023-04-28T08:43:31;24.80;39.90
53314;DHT22;39202;51.468;7.146;2023-04-28T08:48:38;25.00;40.00
53314;DHT22;39202;51.468;7.146;2023-04-28T08:53:43;25.00;40.10
53314;DHT22;39202;51.468;7.146;2023-04-28T08:58:48;25.10;40.10
53314;DHT22;39202;51.468;7.146;2023-04-28T09:03:50;25.00;40.00
53314;DHT22;39202;51.468;7.146;2023-04-28T09:08:54;25.10;40.10
53314;DHT22;39202;51.468;7.146;2023-04-28T09:14:11;25.10;40.10
53314;DHT22;39202;51.468;7.146;2023-04-28T09:19:13;25.20;40.30
53314;DHT22;39202;51.468;7.146;2023-04-28T09:24:31;25.20;40.20
53314;DHT22;39202;51.468;7.146;2023-04-28T09:29:35;25.20;40.30
53314;DHT22;39202;51.468;7.146;2023-04-28T09:34:42;25.20;40.20
53314;DHT22;39202;51.468;7.146;2023-04-28T09:39:45;25.20;40.20
53314;DHT22;39202;51.468;7.146;2023-04-28T09:44:53;25.20;40.20
53314;DHT22;39202;51.468;7.146;2023-04-28T09:49:55;25.30;40.40
53314;DHT22;39202;51.468;7.146;2023-04-28T09:54:57;25.30;40.30
53314;DHT22;39202;51.468;7.146;2023-04-28T10:00:03;25.30;40.30
53314;DHT22;39202;51.468;7.146;2023-04-28T10:05:07;25.30;40.40
53314;DHT22;39202;51.468;7.146;2023-04-28T10:10:10;25.30;40.40
53314;DHT22;39202;51.468;7.146;2023-04-28T10:15:15;25.30;40.40
53314;DHT22;39202;51.468;7.146;2023-04-28T10:20:17;25.30;40.30
53314;DHT22;39202;51.468;7.146;2023-04-28T10:25:25;25.40;40.30
53314;DHT22;39202;51.468;7.146;2023-04-28T10:30:28;25.30;40.20
53314;DHT22;39202;51.468;7.146;2023-04-28T10:35:40;25.30;40.20
53314;DHT22;39202;51.468;7.146;2023-04-28T10:40:43;25.40;40.30
53314;DHT22;39202;51.468;7.146;2023-04-28T10:46:00;25.30;40.20
53314;DHT22;39202;51.468;7.146;2023-04-28T10:51:37;25.40;40.20
53314;DHT22;39202;51.468;7.146;2023-04-28T10:56:42;25.40;40.00
53314;DHT22;39202;51.468;7.146;2023-04-28T11:02:38;25.30;40.00
53314;DHT22;39202;51.468;7.146;2023-04-28T11:07:45;25.30;40.00
53314;DHT22;39202;51.468;7.146;2023-04-28T11:13:25;25.30;39.90
53314;DHT22;39202;51.468;7.146;2023-04-28T11:18:28;25.30;40.00
53314;DHT22;39202;51.468;7.146;2023-04-28T11:23:30;25.30;39.90
53314;DHT22;39202;51.468;7.146;2023-04-28T11:28:32;25.30;39.90
53314;DHT22;39202;51.468;7.146;2023-04-28T11:33:37;25.20;39.90
53314;DHT22;39202;51.468;7.146;2023-04-28T11:38:42;25.20;40.00
53314;DHT22;39202;51.468;7.146;2023-04-28T11:43:44;25.20;40.10
53314;DHT22;39202;51.468;7.146;2023-04-28T11:48:48;25.30;40.10
53314;DHT22;39202;51.468;7.146;2023-04-28T11:53:50;25.30;40.20
53314;DHT22;39202;51.468;7.146;2023-04-28T11:59:02;25.30;40.20
53314;DHT22;39202;51.468;7.146;2023-04-28T12:04:06;25.30;40.30
53314;DHT22;39202;51.468;7.146;2023-04-28T12:09:15;25.30;40.30
53314;DHT22;39202;51.468;7.146;2023-04-28T12:14:17;25.30;40.40
53314;DHT22;39202;51.468;7.146;2023-04-28T12:19:20;25.30;40.40
53314;DHT22;39202;51.468;7.146;2023-04-28T12:24:22;25.30;40.50
53314;DHT22;39202;51.468;7.146;2023-04-28T12:29:37;25.40;40.60
53314;DHT22;39202;51.468;7.146;2023-04-28T12:34:42;25.40;40.70
53314;DHT22;39202;51.468;7.146;2023-04-28T12:39:44;25.40;40.70
53314;DHT22;39202;51.468;7.146;2023-04-28T12:44:46;25.40;40.60
53314;DHT22;39202;51.468;7.146;2023-04-28T12:49:49;25.40;40.70
53314;DHT22;39202;51.468;7.146;2023-04-28T12:54:52;25.40;40.80
53314;DHT22;39202;51.468;7.146;2023-04-28T12:59:54;25.50;40.80
53314;DHT22;39202;51.468;7.146;2023-04-28T13:04:58;25.50;40.80
53314;DHT22;39202;51.468;7.146;2023-04-28T13:09:59;25.50;40.90
53314;DHT22;39202;51.468;7.146;2023-04-28T13:15:02;25.50;40.90
53314;DHT22;39202;51.468;7.146;2023-04-28T13:20:06;25.60;41.10
53314;DHT22;39202;51.468;7.146;2023-04-28T13:25:09;25.60;41.00
53314;DHT22;39202;51.468;7.146;2023-04-28T13:30:12;25.70;41.00
53314;DHT22;39202;51.468;7.146;2023-04-28T13:35:15;25.70;41.20
53314;DHT22;39202;51.468;7.146;2023-04-28T13:40:17;25.70;41.10
53314;DHT22;39202;51.468;7.146;2023-04-28T13:45:18;25.80;41.10
53314;DHT22;39202;51.468;7.146;2023-04-28T13:50:22;25.80;41.10
53314;DHT22;39202;51.468;7.146;2023-04-28T13:55:23;25.90;41.20
53314;DHT22;39202;51.468;7.146;2023-04-28T14:00:28;25.90;41.20
53314;DHT22;39202;51.468;7.146;2023-04-28T14:05:31;25.90;41.20
53314;DHT22;39202;51.468;7.146;2023-04-28T14:10:33;26.00;41.30
53314;DHT22;39202;51.468;7.146;2023-04-28T14:15:35;26.00;41.20
53314;DHT22;39202;51.468;7.146;2023-04-28T14:20:38;26.00;41.20
53314;DHT22;39202;51.468;7.146;2023-04-28T14:25:40;26.00;41.20
53314;DHT22;39202;51.468;7.146;2023-04-28T14:30:42;26.00;41.10
53314;DHT22;39202;51.468;7.146;2023-04-28T14:35:45;26.00;41.10
53314;DHT22;39202;51.468;7.146;2023-04-28T14:40:47;26.00;41.10
53314;DHT22;39202;51.468;7.146;2023-04-28T14:45:49;26.00;41.00
53314;DHT22;39202;51.468;7.146;2023-04-28T14:50:52;26.00;41.00
53314;DHT22;39202;51.468;7.146;2023-04-28T14:55:54;26.00;40.90
53314;DHT22;39202;51.468;7.146;2023-04-28T15:00:56;26.00;40.90
53314;DHT22;39202;51.468;7.146;2023-04-28T15:05:59;26.00;40.90
53314;DHT22;39202;51.468;7.146;2023-04-28T15:11:02;25.90;40.80
53314;DHT22;39202;51.468;7.146;2023-04-28T15:16:04;26.00;40.80
53314;DHT22;39202;51.468;7.146;2023-04-28T15:21:08;26.00;40.80
53314;DHT22;39202;51.468;7.146;2023-04-28T15:26:09;25.90;40.70
53314;DHT22;39202;51.468;7.146;2023-04-28T15:31:11;25.90;40.70
53314;DHT22;39202;51.468;7.146;2023-04-28T15:36:14;25.90;40.70
53314;DHT22;39202;51.468;7.146;2023-04-28T15:41:18;25.90;40.70
53314;DHT22;39202;51.468;7.146;2023-04-28T15:46:20;25.90;40.70
53314;DHT22;39202;51.468;7.146;2023-04-28T15:51:23;25.80;40.70
53314;DHT22;39202;51.468;7.146;2023-04-28T15:56:25;25.80;40.60
53314;DHT22;39202;51.468;7.146;2023-04-28T16:01:27;25.80;40.60
53314;DHT22;39202;51.468;7.146;2023-04-28T16:06:31;25.80;40.60
53314;DHT22;39202;51.468;7.146;2023-04-28T16:11:33;25.80;40.50
53314;DHT22;39202;51.468;7.146;2023-04-28T16:16:34;25.80;40.60
53314;DHT22;39202;51.468;7.146;2023-04-28T16:21:38;25.80;40.60
53314;DHT22;39202;51.468;7.146;2023-04-28T16:26:40;25.70;40.50
53314;DHT22;39202;51.468;7.146;2023-04-28T16:31:41;25.70;40.50
53314;DHT22;39202;51.468;7.146;2023-04-28T16:36:46;25.70;40.50
53314;DHT22;39202;51.468;7.146;2023-04-28T16:41:48;25.70;40.50
53314;DHT22;39202;51.468;7.146;2023-04-28T16:46:50;25.70;40.50
53314;DHT22;39202;51.468;7.146;2023-04-28T16:51:57;25.70;40.60
53314;DHT22;39202;51.468;7.146;2023-04-28T16:57:00;25.60;40.60
53314;DHT22;39202;51.468;7.146;2023-04-28T17:02:03;25.70;40.60
53314;DHT22;39202;51.468;7.146;2023-04-28T17:07:07;25.60;40.50
53314;DHT22;39202;51.468;7.146;2023-04-28T17:12:09;25.60;40.60
53314;DHT22;39202;51.468;7.146;2023-04-28T17:17:11;25.60;40.60
53314;DHT22;39202;51.468;7.146;2023-04-28T17:22:14;25.60;40.60
53314;DHT22;39202;51.468;7.146;2023-04-28T17:27:15;25.50;40.50
53314;DHT22;39202;51.468;7.146;2023-04-28T17:32:17;25.50;40.50
53314;DHT22;39202;51.468;7.146;2023-04-28T17:37:20;25.50;40.50
53314;DHT22;39202;51.468;7.146;2023-04-28T17:42:22;25.50;40.50
53314;DHT22;39202;51.468;7.146;2023-04-28T17:47:24;25.50;40.50
53314;DHT22;39202;51.468;7.146;2023-04-28T17:52:27;25.50;40.50
53314;DHT22;39202;51.468;7.146;2023-04-28T17:57:29;25.50;40.50
53314;DHT22;39202;51.468;7.146;2023-04-28T18:02:31;25.40;40.50
53314;DHT22;39202;51.468;7.146;2023-04-28T18:07:34;25.40;40.50
53314;DHT22;39202;51.468;7.146;2023-04-28T18:12:36;25.40;40.50
53314;DHT22;39202;51.468;7.146;2023-04-28T18:17:38;25.40;40.40
53314;DHT22;39202;51.468;7.146;2023-04-28T18:22:41;25.40;40.50
53314;DHT22;39202;51.468;7.146;2023-04-28T18:27:43;25.30;40.40
53314;DHT22;39202;51.468;7.146;2023-04-28T18:32:45;25.30;40.40
53314;DHT22;39202;51.468;7.146;2023-04-28T18:37:49;25.30;40.40
53314;DHT22;39202;51.468;7.146;2023-04-28T18:42:51;25.30;40.40
53314;DHT22;39202;51.468;7.146;2023-04-28T18:47:52;25.30;40.40
53314;DHT22;39202;51.468;7.146;2023-04-28T18:52:56;25.30;40.40
53314;DHT22;39202;51.468;7.146;2023-04-28T18:57:58;25.30;40.50
53314;DHT22;39202;51.468;7.146;2023-04-28T19:03:01;25.30;41.10
53314;DHT22;39202;51.468;7.146;2023-04-28T19:08:04;25.30;40.50
53314;DHT22;39202;51.468;7.146;2023-04-28T19:13:07;25.30;40.50
53314;DHT22;39202;51.468;7.146;2023-04-28T19:18:09;25.30;40.40
53314;DHT22;39202;51.468;7.146;2023-04-28T19:23:13;25.20;40.40
53314;DHT22;39202;51.468;7.146;2023-04-28T19:28:15;25.20;40.50
53314;DHT22;39202;51.468;7.146;2023-04-28T19:33:16;25.20;40.50
53314;DHT22;39202;51.468;7.146;2023-04-28T19:38:20;25.20;40.50
53314;DHT22;39202;51.468;7.146;2023-04-28T19:43:22;25.10;40.50
53314;DHT22;39202;51.468;7.146;2023-04-28T19:48:24;25.10;40.50
53314;DHT22;39202;51.468;7.146;2023-04-28T19:53:27;25.10;40.50
53314;DHT22;39202;51.468;7.146;2023-04-28T19:58:29;25.10;40.50
53314;DHT22;39202;51.468;7.146;2023-04-28T20:03:31;25.10;41.10
53314;DHT22;39202;51.468;7.146;2023-04-28T20:08:35;25.10;40.60
53314;DHT22;39202;51.468;7.146;2023-04-28T20:13:36;25.10;40.60
53314;DHT22;39202;51.468;7.146;2023-04-28T20:18:38;25.00;40.50
53314;DHT22;39202;51.468;7.146;2023-04-28T20:23:41;26.50;41.50
53314;DHT22;39202;51.468;7.146;2023-04-28T20:28:45;25.00;40.50
53314;DHT22;39202;51.468;7.146;2023-04-28T20:33:47;25.00;40.50
53314;DHT22;39202;51.468;7.146;2023-04-28T20:38:50;25.00;40.60
53314;DHT22;39202;51.468;7.146;2023-04-28T20:43:51;25.00;40.60
53314;DHT22;39202;51.468;7.146;2023-04-28T20:48:53;25.00;40.60
53314;DHT22;39202;51.468;7.146;2023-04-28T20:53:56;25.00;40.60
53314;DHT22;39202;51.468;7.146;2023-04-28T20:58:58;25.00;40.60
53314;DHT22;39202;51.468;7.146;2023-04-28T21:04:00;25.00;40.60
53314;DHT22;39202;51.468;7.146;2023-04-28T21:09:03;24.90;40.50
53314;DHT22;39202;51.468;7.146;2023-04-28T21:14:05;24.90;40.60
53314;DHT22;39202;51.468;7.146;2023-04-28T21:19:07;24.90;40.60
53314;DHT22;39202;51.468;7.146;2023-04-28T21:24:10;24.90;40.60
53314;DHT22;39202;51.468;7.146;2023-04-28T21:29:12;24.90;40.60
53314;DHT22;39202;51.468;7.146;2023-04-28T21:34:14;24.90;40.60
53314;DHT22;39202;51.468;7.146;2023-04-28T21:39:17;24.90;40.60
53314;DHT22;39202;51.468;7.146;2023-04-28T21:44:19;24.80;40.60
53314;DHT22;39202;51.468;7.146;2023-04-28T21:49:21;24.80;40.60
53314;DHT22;39202;51.468;7.146;2023-04-28T21:54:24;24.80;40.60
53314;DHT22;39202;51.468;7.146;2023-04-28T21:59:26;24.80;40.70
53314;DHT22;39202;51.468;7.146;2023-04-28T22:04:28;24.80;40.60
53314;DHT22;39202;51.468;7.146;2023-04-28T22:09:31;24.80;40.60
53314;DHT22;39202;51.468;7.146;2023-04-28T22:14:33;24.80;40.70
53314;DHT22;39202;51.468;7.146;2023-04-28T22:19:35;24.80;40.70
53314;DHT22;39202;51.468;7.146;2023-04-28T22:24:38;24.80;40.70
53314;DHT22;39202;51.468;7.146;2023-04-28T22:29:40;24.80;40.70
53314;DHT22;39202;51.468;7.146;2023-04-28T22:34:42;24.80;40.70
53314;DHT22;39202;51.468;7.146;2023-04-28T22:39:45;24.70;40.60
53314;DHT22;39202;51.468;7.146;2023-04-28T22:44:46;24.70;40.60
53314;DHT22;39202;51.468;7.146;2023-04-28T22:49:48;24.70;40.70
53314;DHT22;39202;51.468;7.146;2023-04-28T22:54:51;24.70;40.70
53314;DHT22;39202;51.468;7.146;2023-04-28T22:59:53;24.70;40.70
53314;DHT22;39202;51.468;7.146;2023-04-28T23:04:55;24.70;40.70
53314;DHT22;39202;51.468;7.146;2023-04-28T23:09:58;24.70;40.70
53314;DHT22;39202;51.468;7.146;2023-04-28T23:15:00;24.60;40.70
53314;DHT22;39202;51.468;7.146;2023-04-28T23:20:02;24.60;41.30
53314;DHT22;39202;51.468;7.146;2023-04-28T23:25:06;24.60;40.70
53314;DHT22;39202;51.468;7.146;2023-04-28T23:30:09;24.60;40.70
53314;DHT22;39202;51.468;7.146;2023-04-28T23:35:11;24.60;41.30
53314;DHT22;39202;51.468;7.146;2023-04-28T23:40:15;24.60;41.30
53314;DHT22;39202;51.468;7.146;2023-04-28T23:45:16;24.60;40.70
53314;DHT22;39202;51.468;7.146;2023-04-28T23:50:18;24.60;40.70
53314;DHT22;39202;51.468;7.146;2023-04-28T23:55:21;24.60;40.80
